createdAt,value
2016-12-14T00:00:21.781Z,0
2016-12-14T00:01:02.353Z,0
2016-12-14T00:01:42.933Z,0
2016-12-14T00:02:23.532Z,0
2016-12-14T00:03:04.109Z,0
2016-12-14T00:03:44.690Z,0
2016-12-14T00:04:25.287Z,0
2016-12-14T00:05:05.898Z,0
2016-12-14T00:05:46.513Z,0
2016-12-14T00:06:27.098Z,0
2016-12-14T00:07:07.683Z,0
2016-12-14T00:07:48.278Z,0
2016-12-14T00:08:28.857Z,0
2016-12-14T00:09:09.439Z,0
2016-12-14T00:09:50.021Z,0
2016-12-14T00:10:30.596Z,0
2016-12-14T00:11:11.185Z,0
2016-12-14T00:11:51.777Z,0
2016-12-14T00:12:32.371Z,0
2016-12-14T00:13:12.971Z,0
2016-12-14T00:13:53.549Z,0
2016-12-14T00:14:34.132Z,0
2016-12-14T00:15:14.721Z,0
2016-12-14T00:15:55.319Z,0
2016-12-14T00:16:35.900Z,0
2016-12-14T00:17:16.483Z,0
2016-12-14T00:17:57.072Z,0
2016-12-14T00:18:37.666Z,0
2016-12-14T00:19:18.261Z,0
2016-12-14T00:19:58.847Z,0
2016-12-14T00:20:39.421Z,0
2016-12-14T00:21:20.010Z,0
2016-12-14T00:22:00.603Z,0
2016-12-14T00:22:41.189Z,0
2016-12-14T00:23:21.779Z,0
2016-12-14T00:24:02.369Z,0
2016-12-14T00:24:42.956Z,0
2016-12-14T00:25:23.537Z,0
2016-12-14T00:26:04.120Z,0
2016-12-14T00:26:44.715Z,0
2016-12-14T00:27:25.293Z,0
2016-12-14T00:28:05.874Z,0
2016-12-14T00:28:46.455Z,0
2016-12-14T00:29:27.045Z,0
2016-12-14T00:30:07.631Z,0
2016-12-14T00:30:48.222Z,0
2016-12-14T00:31:28.801Z,0
2016-12-14T00:32:09.387Z,0
2016-12-14T00:32:49.987Z,0
2016-12-14T00:33:30.559Z,0
2016-12-14T00:34:11.150Z,0
2016-12-14T00:34:51.736Z,0
2016-12-14T00:35:32.309Z,0
2016-12-14T00:36:12.894Z,0
2016-12-14T00:36:53.472Z,0
2016-12-14T00:37:34.055Z,0
2016-12-14T00:38:14.646Z,0
2016-12-14T00:38:55.224Z,0
2016-12-14T00:39:35.804Z,0
2016-12-14T00:40:16.395Z,0
2016-12-14T00:40:56.982Z,0
2016-12-14T00:41:37.570Z,0
2016-12-14T00:42:18.148Z,0
2016-12-14T00:42:58.736Z,0
2016-12-14T00:43:39.318Z,0
2016-12-14T00:44:19.901Z,0
2016-12-14T00:45:00.496Z,0
2016-12-14T00:45:41.086Z,0
2016-12-14T00:46:21.669Z,0
2016-12-14T00:47:02.270Z,0
2016-12-14T00:47:42.868Z,0
2016-12-14T00:48:23.456Z,0
2016-12-14T00:49:04.040Z,0
2016-12-14T00:49:44.623Z,0
2016-12-14T00:50:25.201Z,0
2016-12-14T00:51:05.782Z,0
2016-12-14T00:51:46.369Z,0
2016-12-14T00:52:26.952Z,0
2016-12-14T00:53:07.535Z,0
2016-12-14T00:53:48.116Z,0
2016-12-14T00:54:28.700Z,0
2016-12-14T00:55:09.302Z,0
2016-12-14T00:55:49.885Z,0
2016-12-14T00:56:30.463Z,0
2016-12-14T00:57:11.058Z,0
2016-12-14T00:57:51.642Z,0
2016-12-14T00:58:32.244Z,0
2016-12-14T00:59:12.833Z,0
2016-12-14T00:59:53.419Z,0
2016-12-14T01:00:34.004Z,0
2016-12-14T01:01:14.588Z,0
2016-12-14T01:01:55.171Z,0
2016-12-14T01:02:35.756Z,0
2016-12-14T01:03:16.332Z,0
2016-12-14T01:03:56.920Z,0
2016-12-14T01:04:37.511Z,0
2016-12-14T01:05:18.104Z,0
2016-12-14T01:05:58.707Z,0
2016-12-14T01:06:39.302Z,0
2016-12-14T01:07:19.880Z,0
2016-12-14T01:08:00.472Z,0
2016-12-14T01:08:41.054Z,0
2016-12-14T01:09:21.641Z,0
2016-12-14T01:10:02.239Z,0
2016-12-14T01:10:42.828Z,0
2016-12-14T01:11:23.427Z,0
2016-12-14T01:12:04.006Z,0
2016-12-14T01:12:44.593Z,0
2016-12-14T01:13:25.174Z,0
2016-12-14T01:14:05.762Z,0
2016-12-14T01:14:46.342Z,0
2016-12-14T01:15:26.934Z,0
2016-12-14T01:16:07.516Z,0
2016-12-14T01:16:48.098Z,0
2016-12-14T01:17:28.685Z,0
2016-12-14T01:18:09.291Z,0
2016-12-14T01:18:49.892Z,0
2016-12-14T01:19:30.486Z,0
2016-12-14T01:20:11.070Z,0
2016-12-14T01:20:51.649Z,0
2016-12-14T01:21:32.230Z,0
2016-12-14T01:22:12.820Z,0
2016-12-14T01:22:53.427Z,0
2016-12-14T01:23:34.011Z,0
2016-12-14T01:24:14.600Z,0
2016-12-14T01:24:55.196Z,0
2016-12-14T01:25:35.769Z,0
2016-12-14T01:26:16.362Z,0
2016-12-14T01:26:56.956Z,0
2016-12-14T01:27:37.557Z,0
2016-12-14T01:28:18.170Z,0
2016-12-14T01:28:58.758Z,0
2016-12-14T01:29:39.345Z,0
2016-12-14T01:30:19.930Z,0
2016-12-14T01:31:00.516Z,0
2016-12-14T01:31:41.103Z,0
2016-12-14T01:32:21.684Z,0
2016-12-14T01:33:02.270Z,0
2016-12-14T01:33:42.893Z,0
2016-12-14T01:34:23.484Z,0
2016-12-14T01:35:04.085Z,0
2016-12-14T01:35:44.668Z,0
2016-12-14T01:36:25.281Z,0
2016-12-14T01:37:05.889Z,0
2016-12-14T01:37:46.499Z,0
2016-12-14T01:38:27.086Z,0
2016-12-14T01:39:07.679Z,0
2016-12-14T01:39:48.290Z,0
2016-12-14T01:40:28.901Z,0
2016-12-14T01:41:09.490Z,0
2016-12-14T01:41:50.074Z,0
2016-12-14T01:42:30.653Z,0
2016-12-14T01:43:11.244Z,0
2016-12-14T01:43:51.863Z,0
2016-12-14T01:44:32.451Z,0
2016-12-14T01:45:13.039Z,0
2016-12-14T01:45:53.620Z,0
2016-12-14T01:46:34.201Z,0
2016-12-14T01:47:14.790Z,0
2016-12-14T01:47:55.371Z,0
2016-12-14T01:48:35.967Z,0
2016-12-14T01:49:16.557Z,0
2016-12-14T01:49:57.164Z,0
2016-12-14T01:50:37.743Z,0
2016-12-14T01:51:18.331Z,0
2016-12-14T01:51:58.936Z,0
2016-12-14T01:52:39.524Z,0
2016-12-14T01:53:20.131Z,0
2016-12-14T01:54:00.744Z,0
2016-12-14T01:54:41.352Z,0
2016-12-14T01:55:21.932Z,0
2016-12-14T01:56:02.513Z,0
2016-12-14T01:56:43.098Z,0
2016-12-14T01:57:23.677Z,0
2016-12-14T01:58:04.255Z,0
2016-12-14T01:58:44.839Z,0
2016-12-14T01:59:25.419Z,0
2016-12-14T02:00:06.002Z,0
2016-12-14T02:00:46.588Z,0
2016-12-14T02:01:27.170Z,0
2016-12-14T02:02:07.748Z,0
2016-12-14T02:02:48.331Z,0
2016-12-14T02:03:28.925Z,0
2016-12-14T02:04:09.506Z,0
2016-12-14T02:04:50.108Z,0
2016-12-14T02:05:30.697Z,0
2016-12-14T02:06:11.301Z,0
2016-12-14T02:06:51.912Z,0
2016-12-14T02:07:32.509Z,0
2016-12-14T02:08:13.090Z,0
2016-12-14T02:08:53.663Z,0
2016-12-14T02:09:34.258Z,0
2016-12-14T02:10:14.863Z,0
2016-12-14T02:10:55.455Z,0
2016-12-14T02:11:36.038Z,0
2016-12-14T02:12:16.629Z,0
2016-12-14T02:12:57.214Z,0
2016-12-14T02:13:37.784Z,0
2016-12-14T02:14:18.368Z,0
2016-12-14T02:14:58.963Z,0
2016-12-14T02:15:39.539Z,0
2016-12-14T02:16:20.128Z,0
2016-12-14T02:17:00.721Z,0
2016-12-14T02:17:41.323Z,0
2016-12-14T02:18:21.917Z,0
2016-12-14T02:19:02.526Z,0
2016-12-14T02:19:43.121Z,0
2016-12-14T02:20:23.700Z,0
2016-12-14T02:21:04.292Z,0
2016-12-14T02:21:44.872Z,0
2016-12-14T02:22:25.453Z,0
2016-12-14T02:23:06.043Z,0
2016-12-14T02:23:46.639Z,0
2016-12-14T02:24:27.210Z,0
2016-12-14T02:25:07.814Z,0
2016-12-14T02:25:48.398Z,0
2016-12-14T02:26:29.003Z,0
2016-12-14T02:27:09.598Z,0
2016-12-14T02:27:50.187Z,0
2016-12-14T02:28:30.771Z,0
2016-12-14T02:29:11.358Z,0
2016-12-14T02:29:51.961Z,0
2016-12-14T02:30:32.548Z,0
2016-12-14T02:31:13.120Z,0
2016-12-14T02:31:53.714Z,0
2016-12-14T02:32:34.302Z,0
2016-12-14T02:33:14.889Z,0
2016-12-14T02:33:55.471Z,0
2016-12-14T02:34:36.054Z,0
2016-12-14T02:35:16.633Z,0
2016-12-14T02:35:57.219Z,0
2016-12-14T02:36:37.839Z,0
2016-12-14T02:37:18.425Z,0
2016-12-14T02:37:59.032Z,0
2016-12-14T02:38:39.615Z,0
2016-12-14T02:39:20.199Z,0
2016-12-14T02:40:00.793Z,0
2016-12-14T02:40:41.397Z,0
2016-12-14T02:41:21.995Z,0
2016-12-14T02:42:02.590Z,0
2016-12-14T02:42:43.192Z,0
2016-12-14T02:43:23.780Z,0
2016-12-14T02:44:04.360Z,0
2016-12-14T02:44:44.950Z,0
2016-12-14T02:45:25.534Z,0
2016-12-14T02:46:06.117Z,0
2016-12-14T02:46:46.721Z,0
2016-12-14T02:47:27.312Z,0
2016-12-14T02:48:07.904Z,0
2016-12-14T02:48:48.490Z,0
2016-12-14T02:49:29.083Z,0
2016-12-14T02:50:09.668Z,0
2016-12-14T02:50:50.270Z,0
2016-12-14T02:51:30.835Z,0
2016-12-14T02:52:11.416Z,0
2016-12-14T02:52:52.024Z,0
2016-12-14T02:53:32.618Z,0
2016-12-14T02:54:13.222Z,0
2016-12-14T02:54:53.820Z,0
2016-12-14T02:55:34.403Z,0
2016-12-14T02:56:14.988Z,0
2016-12-14T02:56:55.577Z,0
2016-12-14T02:57:36.161Z,0
2016-12-14T02:58:16.748Z,0
2016-12-14T02:58:57.361Z,0
2016-12-14T02:59:37.955Z,0
2016-12-14T03:00:18.537Z,0
2016-12-14T03:00:59.115Z,0
2016-12-14T03:01:39.731Z,0
2016-12-14T03:02:20.319Z,0
2016-12-14T03:03:00.916Z,0
2016-12-14T03:03:41.497Z,0
2016-12-14T03:04:22.081Z,0
2016-12-14T03:05:02.666Z,0
2016-12-14T03:05:43.258Z,0
2016-12-14T03:06:23.852Z,0
2016-12-14T03:07:04.434Z,0
2016-12-14T03:07:45.033Z,0
2016-12-14T03:08:25.619Z,0
2016-12-14T03:09:06.218Z,0
2016-12-14T03:09:46.795Z,0
2016-12-14T03:10:27.379Z,0
2016-12-14T03:11:07.961Z,0
2016-12-14T03:11:48.547Z,0
2016-12-14T03:12:29.134Z,0
2016-12-14T03:13:09.740Z,0
2016-12-14T03:13:50.321Z,0
2016-12-14T03:14:30.902Z,0
2016-12-14T03:15:11.493Z,0
2016-12-14T03:15:52.087Z,0
2016-12-14T03:16:32.666Z,0
2016-12-14T03:17:13.250Z,0
2016-12-14T03:17:53.843Z,0
2016-12-14T03:18:34.465Z,0
2016-12-14T03:19:15.056Z,0
2016-12-14T03:19:55.654Z,0
2016-12-14T03:20:36.278Z,0
2016-12-14T03:21:16.855Z,0
2016-12-14T03:21:57.454Z,0
2016-12-14T03:22:38.048Z,0
2016-12-14T03:23:18.637Z,0
2016-12-14T03:23:59.221Z,0
2016-12-14T03:24:39.816Z,0
2016-12-14T03:25:20.409Z,0
2016-12-14T03:26:01.001Z,0
2016-12-14T03:26:41.615Z,0
2016-12-14T03:27:22.184Z,0
2016-12-14T03:28:02.771Z,0
2016-12-14T03:28:43.382Z,0
2016-12-14T03:29:24.000Z,0
2016-12-14T03:30:04.587Z,0
2016-12-14T03:30:45.177Z,0
2016-12-14T03:31:25.774Z,0
2016-12-14T03:32:06.352Z,0
2016-12-14T03:32:46.933Z,0
2016-12-14T03:33:27.527Z,0
2016-12-14T03:34:08.115Z,0
2016-12-14T03:34:48.692Z,0
2016-12-14T03:35:29.274Z,0
2016-12-14T03:36:09.853Z,0
2016-12-14T03:36:50.447Z,0
2016-12-14T03:37:31.040Z,0
2016-12-14T03:38:11.636Z,0
2016-12-14T03:38:52.243Z,0
2016-12-14T03:39:32.828Z,0
2016-12-14T03:40:13.424Z,0
2016-12-14T03:40:54.010Z,0
2016-12-14T03:41:34.610Z,0
2016-12-14T03:42:15.200Z,0
2016-12-14T03:42:55.805Z,0
2016-12-14T03:43:36.396Z,0
2016-12-14T03:44:16.981Z,0
2016-12-14T03:44:57.565Z,0
2016-12-14T03:45:38.159Z,0
2016-12-14T03:46:18.750Z,0
2016-12-14T03:46:59.336Z,0
2016-12-14T03:47:39.920Z,0
2016-12-14T03:48:20.515Z,0
2016-12-14T03:49:01.114Z,0
2016-12-14T03:49:41.719Z,0
2016-12-14T03:50:22.321Z,0
2016-12-14T03:51:02.913Z,0
2016-12-14T03:51:43.497Z,0
2016-12-14T03:52:24.083Z,0
2016-12-14T03:53:04.674Z,0
2016-12-14T03:53:45.264Z,0
2016-12-14T03:54:25.851Z,0
2016-12-14T03:55:06.440Z,0
2016-12-14T03:55:47.031Z,0
2016-12-14T03:56:27.626Z,0
2016-12-14T03:57:08.203Z,0
2016-12-14T03:57:48.792Z,0
2016-12-14T03:58:29.377Z,0
2016-12-14T03:59:09.977Z,0
2016-12-14T03:59:50.573Z,0
2016-12-14T04:00:31.188Z,0
2016-12-14T04:01:11.791Z,0
2016-12-14T04:01:52.397Z,0
2016-12-14T04:02:32.981Z,0
2016-12-14T04:03:13.556Z,0
2016-12-14T04:03:54.144Z,0
2016-12-14T04:04:34.728Z,0
2016-12-14T04:05:15.335Z,0
2016-12-14T04:05:55.939Z,0
2016-12-14T04:06:36.520Z,0
2016-12-14T04:07:17.106Z,0
2016-12-14T04:07:57.697Z,0
2016-12-14T04:08:38.268Z,0
2016-12-14T04:09:18.860Z,0
2016-12-14T04:09:59.452Z,0
2016-12-14T04:10:40.034Z,0
2016-12-14T04:11:20.620Z,0
2016-12-14T04:12:01.206Z,0
2016-12-14T04:12:41.811Z,0
2016-12-14T04:13:22.411Z,0
2016-12-14T04:14:02.998Z,0
2016-12-14T04:14:43.574Z,0
2016-12-14T04:15:24.163Z,0
2016-12-14T04:16:04.749Z,0
2016-12-14T04:16:45.327Z,0
2016-12-14T04:17:25.929Z,0
2016-12-14T04:18:06.517Z,0
2016-12-14T04:18:47.119Z,0
2016-12-14T04:19:27.702Z,0
2016-12-14T04:20:08.290Z,0
2016-12-14T04:20:48.884Z,0
2016-12-14T04:21:29.478Z,0
2016-12-14T04:22:10.079Z,0
2016-12-14T04:22:50.651Z,0
2016-12-14T04:23:31.227Z,0
2016-12-14T04:24:11.806Z,0
2016-12-14T04:24:52.391Z,0
2016-12-14T04:25:32.987Z,0
2016-12-14T04:26:13.563Z,0
2016-12-14T04:26:54.147Z,0
2016-12-14T04:27:34.739Z,0
2016-12-14T04:28:15.338Z,0
2016-12-14T04:28:55.919Z,0
2016-12-14T04:29:36.508Z,0
2016-12-14T04:30:17.101Z,0
2016-12-14T04:30:57.699Z,0
2016-12-14T04:31:38.299Z,0
2016-12-14T04:32:18.886Z,0
2016-12-14T04:32:59.478Z,0
2016-12-14T04:33:40.059Z,0
2016-12-14T04:34:20.669Z,0
2016-12-14T04:35:01.270Z,0
2016-12-14T04:35:41.861Z,0
2016-12-14T04:36:22.455Z,0
2016-12-14T04:37:03.028Z,0
2016-12-14T04:37:43.617Z,0
2016-12-14T04:38:24.219Z,0
2016-12-14T04:39:04.815Z,0
2016-12-14T04:39:45.395Z,0
2016-12-14T04:40:25.979Z,0
2016-12-14T04:41:06.558Z,0
2016-12-14T04:41:47.161Z,0
2016-12-14T04:42:27.779Z,0
2016-12-14T04:43:08.373Z,0
2016-12-14T04:43:48.984Z,0
2016-12-14T04:44:29.574Z,0
2016-12-14T04:45:10.147Z,0
2016-12-14T04:45:50.724Z,0
2016-12-14T04:46:31.306Z,0
2016-12-14T04:47:11.895Z,0
2016-12-14T04:47:52.481Z,0
2016-12-14T04:48:33.072Z,0
2016-12-14T04:49:13.665Z,0
2016-12-14T04:49:54.238Z,0
2016-12-14T04:50:34.824Z,0
2016-12-14T04:51:15.412Z,0
2016-12-14T04:51:55.999Z,0
2016-12-14T04:52:36.612Z,0
2016-12-14T04:53:17.202Z,0
2016-12-14T04:53:57.812Z,0
2016-12-14T04:54:38.402Z,0
2016-12-14T04:55:18.992Z,0
2016-12-14T04:55:59.570Z,0
2016-12-14T04:56:40.155Z,0
2016-12-14T04:57:20.746Z,0
2016-12-14T04:58:01.323Z,0
2016-12-14T04:58:41.910Z,0
2016-12-14T04:59:22.499Z,0
2016-12-14T05:00:03.096Z,0
2016-12-14T05:00:43.690Z,0
2016-12-14T05:01:24.283Z,0
2016-12-14T05:02:04.883Z,0
2016-12-14T05:02:45.470Z,0
2016-12-14T05:03:26.053Z,0
2016-12-14T05:04:06.636Z,0
2016-12-14T05:04:47.238Z,0
2016-12-14T05:05:27.846Z,0
2016-12-14T05:06:08.449Z,0
2016-12-14T05:06:49.024Z,0
2016-12-14T05:07:29.611Z,0
2016-12-14T05:08:10.196Z,0
2016-12-14T05:08:50.779Z,0
2016-12-14T05:09:31.366Z,0
2016-12-14T05:10:11.979Z,0
2016-12-14T05:10:52.561Z,0
2016-12-14T05:11:33.141Z,0
2016-12-14T05:12:13.715Z,0
2016-12-14T05:12:54.315Z,0
2016-12-14T05:13:34.895Z,0
2016-12-14T05:14:15.475Z,0
2016-12-14T05:14:56.060Z,0
2016-12-14T05:15:36.648Z,0
2016-12-14T05:16:17.233Z,0
2016-12-14T05:16:57.822Z,0
2016-12-14T05:17:39.377Z,0
2016-12-14T05:18:19.957Z,0
2016-12-14T05:19:00.543Z,0
2016-12-14T05:19:41.122Z,0
2016-12-14T05:20:21.712Z,0
2016-12-14T05:21:02.296Z,0
2016-12-14T05:21:42.920Z,0
2016-12-14T05:22:23.499Z,0
2016-12-14T05:23:04.085Z,0
2016-12-14T05:23:44.673Z,0
2016-12-14T05:24:25.255Z,0
2016-12-14T05:25:05.829Z,0
2016-12-14T05:25:46.411Z,0
2016-12-14T05:26:26.998Z,0
2016-12-14T05:27:07.584Z,0
2016-12-14T05:27:48.183Z,0
2016-12-14T05:28:28.779Z,0
2016-12-14T05:29:09.376Z,0
2016-12-14T05:29:49.995Z,0
2016-12-14T05:30:30.593Z,0
2016-12-14T05:31:11.201Z,0
2016-12-14T05:31:51.796Z,0
2016-12-14T05:32:32.398Z,0
2016-12-14T05:33:12.983Z,0
2016-12-14T05:33:53.583Z,0
2016-12-14T05:34:34.213Z,0
2016-12-14T05:35:14.802Z,0
2016-12-14T05:35:55.402Z,0
2016-12-14T05:36:35.994Z,0
2016-12-14T05:37:16.611Z,0
2016-12-14T05:37:57.245Z,0
2016-12-14T05:38:37.825Z,0
2016-12-14T05:39:18.417Z,0
2016-12-14T05:39:59.025Z,0
2016-12-14T05:40:39.626Z,0
2016-12-14T05:41:20.212Z,0
2016-12-14T05:42:00.812Z,0
2016-12-14T05:42:41.384Z,0
2016-12-14T05:43:21.982Z,0
2016-12-14T05:44:02.580Z,0
2016-12-14T05:44:43.175Z,0
2016-12-14T05:45:23.781Z,0
2016-12-14T05:46:04.375Z,0
2016-12-14T05:46:44.982Z,0
2016-12-14T05:47:25.587Z,0
2016-12-14T05:48:06.193Z,0
2016-12-14T05:48:46.782Z,0
2016-12-14T05:49:27.358Z,0
2016-12-14T05:50:07.932Z,0
2016-12-14T05:50:48.518Z,0
2016-12-14T05:51:29.104Z,0
2016-12-14T05:52:09.697Z,0
2016-12-14T05:52:50.291Z,0
2016-12-14T05:53:30.882Z,0
2016-12-14T05:54:11.461Z,0
2016-12-14T05:54:52.046Z,0
2016-12-14T05:55:32.623Z,0
2016-12-14T05:56:13.207Z,0
2016-12-14T05:56:53.791Z,0
2016-12-14T05:57:34.371Z,0
2016-12-14T05:58:14.954Z,0
2016-12-14T05:58:55.554Z,0
2016-12-14T05:59:36.157Z,0
2016-12-14T06:00:16.736Z,4
2016-12-14T06:00:57.320Z,8
2016-12-14T06:01:37.919Z,12
2016-12-14T06:02:18.522Z,12
2016-12-14T06:02:59.131Z,12
2016-12-14T06:03:39.729Z,12
2016-12-14T06:04:20.321Z,12
2016-12-14T06:05:00.915Z,12
2016-12-14T06:05:41.506Z,12
2016-12-14T06:06:22.089Z,12
2016-12-14T06:07:02.688Z,12
2016-12-14T06:07:43.280Z,12
2016-12-14T06:08:23.872Z,12
2016-12-14T06:09:04.462Z,12
2016-12-14T06:09:45.051Z,12
2016-12-14T06:10:25.671Z,12
2016-12-14T06:11:06.250Z,12
2016-12-14T06:11:46.857Z,12
2016-12-14T06:12:27.454Z,12
2016-12-14T06:13:08.052Z,12
2016-12-14T06:13:48.639Z,12
2016-12-14T06:14:29.241Z,12
2016-12-14T06:15:09.834Z,12
2016-12-14T06:15:50.428Z,12
2016-12-14T06:16:31.016Z,12
2016-12-14T06:17:11.601Z,12
2016-12-14T06:17:52.199Z,12
2016-12-14T06:18:32.781Z,12
2016-12-14T06:19:13.364Z,12
2016-12-14T06:19:53.956Z,12
2016-12-14T06:20:34.536Z,12
2016-12-14T06:21:15.120Z,12
2016-12-14T06:21:55.704Z,12
2016-12-14T06:22:36.291Z,12
2016-12-14T06:23:16.873Z,12
2016-12-14T06:23:57.471Z,12
2016-12-14T06:24:38.056Z,12
2016-12-14T06:25:18.643Z,12
2016-12-14T06:25:59.231Z,12
2016-12-14T06:26:39.822Z,12
2016-12-14T06:27:20.410Z,12
2016-12-14T06:28:00.995Z,12
2016-12-14T06:28:41.573Z,12
2016-12-14T06:29:22.155Z,12
2016-12-14T06:30:02.747Z,12
2016-12-14T06:30:43.347Z,12
2016-12-14T06:31:23.941Z,12
2016-12-14T06:32:04.527Z,12
2016-12-14T06:32:45.129Z,12
2016-12-14T06:33:25.708Z,12
2016-12-14T06:34:06.295Z,12
2016-12-14T06:34:46.877Z,12
2016-12-14T06:35:27.476Z,12
2016-12-14T06:36:08.062Z,12
2016-12-14T06:36:48.665Z,12
2016-12-14T06:37:29.248Z,12
2016-12-14T06:38:09.833Z,12
2016-12-14T06:38:50.422Z,12
2016-12-14T06:39:31.028Z,12
2016-12-14T06:40:11.608Z,12
2016-12-14T06:40:52.221Z,12
2016-12-14T06:41:32.832Z,12
2016-12-14T06:42:13.424Z,12
2016-12-14T06:42:54.022Z,12
2016-12-14T06:43:34.608Z,12
2016-12-14T06:44:15.200Z,12
2016-12-14T06:44:55.799Z,12
2016-12-14T06:45:36.393Z,12
2016-12-14T06:46:16.983Z,12
2016-12-14T06:46:57.564Z,12
2016-12-14T06:47:38.154Z,12
2016-12-14T06:48:18.742Z,12
2016-12-14T06:48:59.320Z,12
2016-12-14T06:49:39.909Z,12
2016-12-14T06:50:20.505Z,12
2016-12-14T06:51:01.091Z,8
2016-12-14T06:51:41.666Z,8
2016-12-14T06:52:22.259Z,8
2016-12-14T06:53:02.852Z,8
2016-12-14T06:53:43.456Z,8
2016-12-14T06:54:24.031Z,8
2016-12-14T06:55:04.611Z,8
2016-12-14T06:55:45.192Z,8
2016-12-14T06:56:25.794Z,8
2016-12-14T06:57:06.372Z,12
2016-12-14T06:57:46.972Z,12
2016-12-14T06:58:27.564Z,12
2016-12-14T06:59:08.175Z,12
2016-12-14T06:59:48.767Z,12
2016-12-14T07:00:29.355Z,0
2016-12-14T07:01:09.954Z,0
2016-12-14T07:01:50.553Z,0
2016-12-14T07:02:31.145Z,0
2016-12-14T07:03:11.740Z,0
2016-12-14T07:03:52.349Z,0
2016-12-14T07:04:32.946Z,0
2016-12-14T07:05:13.528Z,0
2016-12-14T07:05:54.139Z,0
2016-12-14T07:06:34.725Z,0
2016-12-14T07:07:15.309Z,0
2016-12-14T07:07:55.925Z,0
2016-12-14T07:08:36.515Z,0
2016-12-14T07:09:17.120Z,0
2016-12-14T07:09:57.718Z,0
2016-12-14T07:10:38.977Z,0
2016-12-14T07:11:19.563Z,0
2016-12-14T07:12:00.164Z,0
2016-12-14T07:12:40.765Z,4
2016-12-14T07:13:21.350Z,4
2016-12-14T07:14:01.946Z,4
2016-12-14T07:14:42.539Z,4
2016-12-14T07:15:23.141Z,4
2016-12-14T07:16:03.729Z,0
2016-12-14T07:16:44.302Z,0
2016-12-14T07:17:24.911Z,0
2016-12-14T07:18:05.492Z,0
2016-12-14T07:18:46.082Z,0
2016-12-14T07:19:26.706Z,4
2016-12-14T07:20:07.296Z,4
2016-12-14T07:20:47.883Z,4
2016-12-14T07:21:28.474Z,4
2016-12-14T07:22:09.082Z,4
2016-12-14T07:22:49.675Z,4
2016-12-14T07:23:30.282Z,4
2016-12-14T07:24:10.872Z,0
2016-12-14T07:24:51.458Z,4
2016-12-14T07:25:32.051Z,4
2016-12-14T07:26:12.686Z,4
2016-12-14T07:26:53.263Z,4
2016-12-14T07:27:33.851Z,4
2016-12-14T07:28:14.437Z,4
2016-12-14T07:28:55.040Z,4
2016-12-14T07:29:35.625Z,4
2016-12-14T07:30:16.246Z,8
2016-12-14T07:30:56.843Z,4
2016-12-14T07:31:37.432Z,4
2016-12-14T07:32:18.031Z,4
2016-12-14T07:32:58.667Z,4
2016-12-14T07:33:39.248Z,4
2016-12-14T07:34:19.849Z,4
2016-12-14T07:35:00.450Z,8
2016-12-14T07:35:41.062Z,8
2016-12-14T07:36:21.645Z,4
2016-12-14T07:37:02.231Z,8
2016-12-14T07:37:42.830Z,8
2016-12-14T07:38:23.422Z,8
2016-12-14T07:39:04.023Z,8
2016-12-14T07:39:44.625Z,8
2016-12-14T07:40:25.215Z,12
2016-12-14T07:41:05.819Z,8
2016-12-14T07:41:46.433Z,8
2016-12-14T07:42:27.017Z,12
2016-12-14T07:43:07.605Z,8
2016-12-14T07:43:48.257Z,12
2016-12-14T07:44:28.841Z,12
2016-12-14T07:45:09.426Z,12
2016-12-14T07:45:50.064Z,12
2016-12-14T07:46:30.742Z,12
2016-12-14T07:47:11.327Z,12
2016-12-14T07:47:52.046Z,16
2016-12-14T07:48:32.622Z,12
2016-12-14T07:49:13.227Z,12
2016-12-14T07:49:53.817Z,16
2016-12-14T07:50:34.417Z,12
2016-12-14T07:51:15.036Z,16
2016-12-14T07:51:55.636Z,16
2016-12-14T07:52:36.227Z,16
2016-12-14T07:53:16.821Z,16
2016-12-14T07:53:57.430Z,16
2016-12-14T07:54:38.023Z,16
2016-12-14T07:55:18.614Z,20
2016-12-14T07:55:59.208Z,16
2016-12-14T07:56:39.819Z,16
2016-12-14T07:57:20.671Z,20
2016-12-14T07:58:01.201Z,20
2016-12-14T07:58:41.776Z,16
2016-12-14T07:59:22.362Z,20
2016-12-14T08:00:02.939Z,20
2016-12-14T08:00:43.527Z,20
2016-12-14T08:01:24.143Z,20
2016-12-14T08:02:04.764Z,20
2016-12-14T08:02:45.374Z,20
2016-12-14T08:03:25.957Z,24
2016-12-14T08:04:06.551Z,24
2016-12-14T08:04:47.145Z,20
2016-12-14T08:05:27.722Z,20
2016-12-14T08:06:08.315Z,20
2016-12-14T08:06:48.952Z,24
2016-12-14T08:07:29.584Z,24
2016-12-14T08:08:10.182Z,24
2016-12-14T08:08:50.811Z,20
2016-12-14T08:09:31.399Z,24
2016-12-14T08:10:11.999Z,24
2016-12-14T08:10:52.583Z,24
2016-12-14T08:11:33.177Z,24
2016-12-14T08:12:13.812Z,28
2016-12-14T08:12:54.401Z,24
2016-12-14T08:13:34.988Z,24
2016-12-14T08:14:15.572Z,24
2016-12-14T08:14:57.695Z,24
2016-12-14T08:15:38.240Z,28
2016-12-14T08:16:18.831Z,28
2016-12-14T08:16:59.423Z,28
2016-12-14T08:17:40.129Z,24
2016-12-14T08:18:20.759Z,24
2016-12-14T08:19:01.343Z,28
2016-12-14T08:19:41.952Z,28
2016-12-14T08:20:22.676Z,28
2016-12-14T08:21:03.192Z,28
2016-12-14T08:21:44.328Z,24
2016-12-14T08:22:24.440Z,28
2016-12-14T08:23:05.080Z,28
2016-12-14T08:23:45.692Z,28
2016-12-14T08:24:26.289Z,28
2016-12-14T08:25:06.877Z,28
2016-12-14T08:25:47.471Z,28
2016-12-14T08:26:28.074Z,28
2016-12-14T08:27:08.676Z,32
2016-12-14T08:27:49.277Z,32
2016-12-14T08:28:29.873Z,28
2016-12-14T08:29:10.479Z,32
2016-12-14T08:29:51.093Z,32
2016-12-14T08:30:31.697Z,32
2016-12-14T08:31:12.294Z,32
2016-12-14T08:31:52.887Z,32
2016-12-14T08:32:33.509Z,36
2016-12-14T08:33:14.111Z,32
2016-12-14T08:33:54.701Z,32
2016-12-14T08:34:35.289Z,36
2016-12-14T08:35:15.886Z,36
2016-12-14T08:35:56.503Z,36
2016-12-14T08:36:37.102Z,32
2016-12-14T08:37:17.682Z,32
2016-12-14T08:37:58.295Z,36
2016-12-14T08:38:38.952Z,36
2016-12-14T08:39:19.603Z,36
2016-12-14T08:40:00.405Z,36
2016-12-14T08:40:41.014Z,36
2016-12-14T08:41:21.639Z,36
2016-12-14T08:42:02.250Z,36
2016-12-14T08:42:42.920Z,36
2016-12-14T08:43:23.534Z,36
2016-12-14T08:44:04.144Z,40
2016-12-14T08:44:44.740Z,36
2016-12-14T08:45:25.473Z,36
2016-12-14T08:46:06.106Z,36
2016-12-14T08:46:46.685Z,36
2016-12-14T08:47:27.305Z,36
2016-12-14T08:48:07.902Z,40
2016-12-14T08:48:48.517Z,40
2016-12-14T08:49:29.103Z,40
2016-12-14T08:50:09.709Z,40
2016-12-14T08:50:50.306Z,40
2016-12-14T08:51:30.912Z,40
2016-12-14T08:52:11.517Z,36
2016-12-14T08:52:52.104Z,40
2016-12-14T08:53:32.705Z,40
2016-12-14T08:54:13.309Z,40
2016-12-14T08:54:53.914Z,40
2016-12-14T08:55:34.513Z,40
2016-12-14T08:56:15.105Z,40
2016-12-14T08:56:55.716Z,40
2016-12-14T08:57:36.305Z,40
2016-12-14T08:58:16.909Z,40
2016-12-14T08:58:57.534Z,40
2016-12-14T08:59:38.127Z,40
2016-12-14T09:00:18.747Z,40
2016-12-14T09:01:00.224Z,40
2016-12-14T09:01:40.861Z,40
2016-12-14T09:02:22.040Z,40
2016-12-14T09:03:02.671Z,44
2016-12-14T09:03:43.305Z,44
2016-12-14T09:04:23.924Z,44
2016-12-14T09:05:04.572Z,44
2016-12-14T09:05:45.154Z,40
2016-12-14T09:06:25.774Z,40
2016-12-14T09:07:06.449Z,40
2016-12-14T09:07:47.065Z,40
2016-12-14T09:08:27.668Z,40
2016-12-14T09:09:08.304Z,40
2016-12-14T09:09:48.890Z,40
2016-12-14T09:10:29.504Z,40
2016-12-14T09:11:10.110Z,44
2016-12-14T09:11:50.727Z,44
2016-12-14T09:12:31.323Z,44
2016-12-14T09:13:12.854Z,44
2016-12-14T09:13:52.549Z,44
2016-12-14T09:14:33.148Z,44
2016-12-14T09:15:13.809Z,44
2016-12-14T09:15:54.461Z,44
2016-12-14T09:16:35.069Z,44
2016-12-14T09:17:15.682Z,44
2016-12-14T09:17:56.298Z,44
2016-12-14T09:18:36.898Z,44
2016-12-14T09:19:17.480Z,44
2016-12-14T09:19:58.082Z,44
2016-12-14T09:20:38.669Z,44
2016-12-14T09:21:19.290Z,44
2016-12-14T09:21:59.910Z,40
2016-12-14T09:22:40.547Z,40
2016-12-14T09:23:21.159Z,40
2016-12-14T09:24:01.745Z,44
2016-12-14T09:24:42.355Z,44
2016-12-14T09:25:23.003Z,44
2016-12-14T09:26:03.621Z,44
2016-12-14T09:26:44.211Z,44
2016-12-14T09:27:24.799Z,44
2016-12-14T09:28:06.364Z,44
2016-12-14T09:28:46.706Z,44
2016-12-14T09:29:27.336Z,44
2016-12-14T09:30:07.937Z,44
2016-12-14T09:30:48.535Z,40
2016-12-14T09:31:29.147Z,44
2016-12-14T09:32:09.742Z,40
2016-12-14T09:32:50.381Z,44
2016-12-14T09:33:31.037Z,44
2016-12-14T09:34:11.652Z,44
2016-12-14T09:34:52.277Z,44
2016-12-14T09:35:32.872Z,44
2016-12-14T09:36:13.458Z,44
2016-12-14T09:36:54.057Z,44
2016-12-14T09:37:34.660Z,44
2016-12-14T09:38:15.271Z,44
2016-12-14T09:38:55.898Z,44
2016-12-14T09:39:36.478Z,44
2016-12-14T09:40:17.113Z,44
2016-12-14T09:40:57.693Z,44
2016-12-14T09:41:38.291Z,44
2016-12-14T09:42:18.952Z,44
2016-12-14T09:42:59.546Z,48
2016-12-14T09:43:40.200Z,44
2016-12-14T09:44:20.800Z,44
2016-12-14T09:45:01.508Z,44
2016-12-14T09:45:42.077Z,44
2016-12-14T09:46:22.668Z,44
2016-12-14T09:47:03.279Z,44
2016-12-14T09:47:43.872Z,44
2016-12-14T09:48:24.477Z,44
2016-12-14T09:49:05.133Z,44
2016-12-14T09:49:45.789Z,44
2016-12-14T09:50:26.410Z,48
2016-12-14T09:51:07.034Z,44
2016-12-14T09:51:47.629Z,44
2016-12-14T09:52:28.282Z,44
2016-12-14T09:53:08.905Z,44
2016-12-14T09:53:49.508Z,44